Time;durP1;ratioP1;P1;durP2;ratioP2;P2;SDS_P1;SDS_P2;PMS_P1;PMS_P2;Temp;Humidity;BMP_temperature;BMP_pressure;BME280_temperature;BME280_humidity;BME280_pressure;Samples;Min_cycle;Max_cycle;Signal;HPM_P1;HPM_P2
2023/05/24 00:01:08;;;;;;;12.00;6.95;;;12.70;99.90;;;;;;5031196;28;20465;-42
2023/05/24 00:03:38;;;;;;;14.18;7.38;;;12.60;99.90;;;;;;5032127;28;20398;-43
2023/05/24 00:06:05;;;;;;;17.60;7.75;;;12.40;99.90;;;;;;5031284;28;20399;-39
2023/05/24 00:08:33;;;;;;;10.13;7.25;;;12.30;99.90;;;;;;5032685;28;20042;-43
2023/05/24 00:11:01;;;;;;;11.15;7.25;;;12.10;99.90;;;;;;5033608;28;20050;-44
2023/05/24 00:13:28;;;;;;;9.45;7.00;;;12.10;99.90;;;;;;5034420;28;20045;-44
2023/05/24 00:15:55;;;;;;;14.95;7.90;;;12.10;99.90;;;;;;5033080;28;20095;-43
2023/05/24 00:18:23;;;;;;;12.80;7.40;;;12.10;99.90;;;;;;5031158;28;20088;-45
2023/05/24 00:20:50;;;;;;;15.65;7.00;;;12.10;99.90;;;;;;5032916;28;20464;-45
2023/05/24 00:23:18;;;;;;;13.40;7.95;;;12.10;99.90;;;;;;5034985;28;20045;-46
2023/05/24 00:25:45;;;;;;;13.25;7.53;;;12.00;99.90;;;;;;5033913;28;20091;-44
2023/05/24 00:28:12;;;;;;;13.95;7.78;;;12.00;99.90;;;;;;5031816;28;20053;-45
2023/05/24 00:30:40;;;;;;;11.93;7.40;;;12.00;99.90;;;;;;5029914;28;20069;-44
2023/05/24 00:33:07;;;;;;;11.75;7.88;;;12.00;99.90;;;;;;5032361;28;20050;-42
2023/05/24 00:35:34;;;;;;;13.38;7.57;;;12.00;99.90;;;;;;5034129;28;20060;-43
2023/05/24 00:38:02;;;;;;;13.43;7.35;;;12.00;99.90;;;;;;5035634;28;20097;-44
2023/05/24 00:40:29;;;;;;;11.82;7.88;;;12.00;99.90;;;;;;5020001;28;20049;-46
2023/05/24 00:42:56;;;;;;;12.30;7.18;;;11.90;99.90;;;;;;5037475;28;20057;-44
2023/05/24 00:45:24;;;;;;;13.85;7.50;;;11.90;99.90;;;;;;5051101;28;20062;-43
2023/05/24 00:47:51;;;;;;;11.38;7.55;;;11.90;99.90;;;;;;5039503;28;20044;-44
2023/05/24 00:50:19;;;;;;;12.32;7.55;;;11.90;99.90;;;;;;5047801;28;20065;-43
2023/05/24 00:52:48;;;;;;;11.77;8.00;;;11.90;99.90;;;;;;5054958;28;20052;-43
2023/05/24 00:55:17;;;;;;;13.43;7.90;;;11.80;99.90;;;;;;5054036;28;20076;-40
2023/05/24 00:57:44;;;;;;;13.48;7.57;;;11.80;99.90;;;;;;5045056;28;20044;-44
2023/05/24 01:00:12;;;;;;;15.90;7.63;;;11.80;99.90;;;;;;5048146;28;20128;-40
2023/05/24 01:02:39;;;;;;;11.35;7.25;;;11.80;99.90;;;;;;5029071;28;20067;-45
2023/05/24 01:05:07;;;;;;;13.20;7.47;;;11.90;99.90;;;;;;5045751;28;20146;-43
2023/05/24 01:07:47;;;;;;;18.45;8.50;;;11.90;99.90;;;;;;5047618;28;20091;-44
2023/05/24 01:10:35;;;;;;;13.77;7.70;;;11.80;99.90;;;;;;5052361;28;20049;-45
2023/05/24 01:13:03;;;;;;;17.00;8.15;;;11.90;99.90;;;;;;5052778;28;20101;-42
2023/05/24 01:15:51;;;;;;;13.10;7.68;;;11.90;99.90;;;;;;5045485;28;20656;-43
2023/05/24 01:18:29;;;;;;;11.40;7.72;;;11.80;99.90;;;;;;5053535;28;20129;-43
2023/05/24 01:21:25;;;;;;;10.43;7.40;;;11.90;99.90;;;;;;5051450;28;20052;-43
2023/05/24 01:24:05;;;;;;;13.75;7.63;;;11.90;99.90;;;;;;5040295;28;20068;-45
2023/05/24 01:27:08;;;;;;;11.65;7.60;;;11.80;99.90;;;;;;5039263;28;20045;-44
2023/05/24 01:29:36;;;;;;;14.50;7.80;;;11.80;99.90;;;;;;5021417;28;20102;-44
2023/05/24 01:32:04;;;;;;;15.35;8.00;;;11.80;99.90;;;;;;5052155;28;20049;-43
2023/05/24 01:34:31;;;;;;;15.77;8.32;;;11.70;99.90;;;;;;5020520;28;20052;-45
2023/05/24 01:36:59;;;;;;;13.65;7.80;;;11.70;99.90;;;;;;5027029;28;20068;-44
2023/05/24 01:39:28;;;;;;;13.82;8.02;;;11.70;99.90;;;;;;5033677;28;20063;-43
2023/05/24 01:42:26;;;;;;;14.30;7.90;;;11.70;99.90;;;;;;5026173;28;20186;-41
2023/05/24 01:45:15;;;;;;;17.13;8.18;;;11.70;99.90;;;;;;5043457;28;20374;-45
2023/05/24 01:48:01;;;;;;;12.00;7.95;;;11.60;99.90;;;;;;5031303;28;20091;-43
2023/05/24 01:50:39;;;;;;;14.02;7.88;;;11.60;99.90;;;;;;5029163;28;20061;-46
2023/05/24 01:53:11;;;;;;;17.92;7.70;;;11.60;99.90;;;;;;5035270;28;20398;-41
2023/05/24 01:55:41;;;;;;;13.77;7.57;;;11.60;99.90;;;;;;5032600;28;20029;-43
2023/05/24 01:58:10;;;;;;;18.23;7.65;;;11.60;99.90;;;;;;5051546;28;20041;-42
2023/05/24 02:00:40;;;;;;;16.23;7.70;;;11.60;99.90;;;;;;5031315;28;20052;-42
2023/05/24 02:03:08;;;;;;;14.45;7.82;;;11.60;99.90;;;;;;5045156;28;20378;-41
2023/05/24 02:05:37;;;;;;;15.18;7.90;;;11.60;99.90;;;;;;5037334;28;20052;-42
2023/05/24 02:08:05;;;;;;;13.20;7.72;;;11.60;99.90;;;;;;5026476;28;20045;-45
2023/05/24 02:10:32;;;;;;;15.38;9.07;;;11.50;99.90;;;;;;5046377;28;20057;-43
2023/05/24 02:12:59;;;;;;;13.82;7.95;;;11.60;99.90;;;;;;5059202;28;20394;-39
2023/05/24 02:15:29;;;;;;;18.33;7.70;;;11.50;99.90;;;;;;5041150;28;20144;-42
2023/05/24 02:17:57;;;;;;;16.02;7.65;;;11.60;99.90;;;;;;5053750;28;20099;-42
2023/05/24 02:20:25;;;;;;;12.70;7.70;;;11.60;99.90;;;;;;5036458;28;20136;-41
2023/05/24 02:22:52;;;;;;;14.38;7.88;;;11.50;99.90;;;;;;5050064;28;20038;-42
2023/05/24 02:25:20;;;;;;;15.38;8.02;;;11.50;99.90;;;;;;5044922;28;20426;-41
2023/05/24 02:27:47;;;;;;;14.02;7.55;;;11.50;99.90;;;;;;5053435;28;20037;-42
2023/05/24 02:30:14;;;;;;;15.52;7.75;;;11.50;99.90;;;;;;5036438;28;20053;-42
2023/05/24 02:32:42;;;;;;;17.48;7.70;;;11.50;99.90;;;;;;5055287;28;20041;-42
2023/05/24 02:35:09;;;;;;;17.08;7.78;;;11.50;99.90;;;;;;5054018;28;20053;-41
2023/05/24 02:37:36;;;;;;;18.98;8.15;;;11.40;99.90;;;;;;5032383;28;20053;-40
2023/05/24 02:40:05;;;;;;;16.60;7.68;;;11.40;99.90;;;;;;5050671;28;20049;-42
2023/05/24 02:42:32;;;;;;;10.50;7.72;;;11.40;99.90;;;;;;5033766;28;20033;-41
2023/05/24 02:45:00;;;;;;;14.57;7.45;;;11.40;99.90;;;;;;5057226;28;20037;-42
2023/05/24 02:47:27;;;;;;;15.52;8.75;;;11.40;99.90;;;;;;5015654;28;20056;-43
2023/05/24 02:49:55;;;;;;;19.65;8.00;;;11.40;99.90;;;;;;5051063;28;20516;-42
2023/05/24 02:52:23;;;;;;;18.65;7.70;;;11.40;99.90;;;;;;5053507;28;20041;-42
2023/05/24 02:54:50;;;;;;;16.10;7.20;;;11.30;99.90;;;;;;5061639;28;20076;-43
2023/05/24 02:57:20;;;;;;;20.23;7.90;;;11.40;99.90;;;;;;5024494;28;20144;-44
2023/05/24 02:59:47;;;;;;;14.68;8.43;;;11.40;99.90;;;;;;5035534;28;20047;-42
2023/05/24 03:02:16;;;;;;;13.50;7.38;;;11.40;99.90;;;;;;5019712;28;20049;-41
2023/05/24 03:04:44;;;;;;;13.00;7.72;;;11.30;99.90;;;;;;5053977;28;20048;-42
2023/05/24 03:07:13;;;;;;;14.05;8.07;;;11.30;99.90;;;;;;5013126;28;20073;-43
2023/05/24 03:09:41;;;;;;;13.93;6.72;;;11.30;99.90;;;;;;5035657;28;20123;-42
2023/05/24 03:12:09;;;;;;;13.70;7.95;;;11.30;99.90;;;;;;5029131;28;20057;-42
2023/05/24 03:14:37;;;;;;;15.05;7.32;;;11.30;99.90;;;;;;5046670;28;20094;-41
2023/05/24 03:17:06;;;;;;;14.85;7.50;;;11.30;99.90;;;;;;5028166;28;20055;-40
2023/05/24 03:19:33;;;;;;;16.90;6.88;;;11.30;99.90;;;;;;5029262;28;20044;-41
2023/05/24 03:22:01;;;;;;;20.17;8.20;;;11.30;99.90;;;;;;5025485;28;20103;-41
2023/05/24 03:24:28;;;;;;;10.52;7.22;;;11.30;99.90;;;;;;5031727;28;20056;-40
2023/05/24 03:26:56;;;;;;;16.08;7.68;;;11.30;99.90;;;;;;5028300;28;20094;-42
2023/05/24 03:29:23;;;;;;;15.10;6.93;;;11.20;99.90;;;;;;5016212;28;20528;-41
2023/05/24 03:31:52;;;;;;;15.52;7.10;;;11.20;99.90;;;;;;5024528;28;20049;-42
2023/05/24 03:34:20;;;;;;;13.10;7.57;;;11.20;99.90;;;;;;5026752;28;20073;-40
2023/05/24 03:36:48;;;;;;;16.63;7.97;;;11.20;99.90;;;;;;5028869;28;20108;-41
2023/05/24 03:39:16;;;;;;;16.17;8.45;;;11.20;99.90;;;;;;5032380;28;20052;-43
2023/05/24 03:42:07;;;;;;;11.55;7.53;;;11.20;99.90;;;;;;4965988;28;20437;-40
2023/05/24 03:44:34;;;;;;;16.50;7.90;;;11.10;99.90;;;;;;4973505;28;20047;-43
2023/05/24 03:47:02;;;;;;;11.80;7.70;;;11.10;99.90;;;;;;4942041;29;20524;-42
2023/05/24 03:49:31;;;;;;;15.05;8.20;;;11.10;99.90;;;;;;4955813;28;20039;-42
2023/05/24 03:51:58;;;;;;;13.05;7.65;;;11.10;99.90;;;;;;4951711;28;20134;-41
2023/05/24 03:54:26;;;;;;;13.48;7.57;;;10.90;99.90;;;;;;4966719;28;20452;-42
2023/05/24 03:56:53;;;;;;;16.08;7.93;;;10.90;99.90;;;;;;4954612;28;20134;-42
2023/05/24 03:59:21;;;;;;;15.68;8.30;;;11.00;99.90;;;;;;4950802;28;20637;-41
2023/05/24 04:01:48;;;;;;;15.65;7.45;;;11.10;99.90;;;;;;4955874;28;20089;-41
2023/05/24 04:04:16;;;;;;;18.65;7.85;;;11.00;99.90;;;;;;4971085;28;20047;-44
2023/05/24 04:06:43;;;;;;;16.83;7.45;;;11.10;99.90;;;;;;4983404;28;20071;-42
2023/05/24 04:09:12;;;;;;;13.40;7.85;;;11.10;99.90;;;;;;4986898;28;20055;-44
2023/05/24 04:11:40;;;;;;;15.52;7.80;;;11.00;99.90;;;;;;4965233;28;20703;-41
2023/05/24 04:14:10;;;;;;;14.30;7.80;;;11.00;99.90;;;;;;4955762;28;20043;-43
2023/05/24 04:16:38;;;;;;;21.75;9.02;;;11.10;99.90;;;;;;4970888;28;20046;-43
2023/05/24 04:19:06;;;;;;;13.40;7.60;;;11.10;99.90;;;;;;5001816;28;20447;-41
2023/05/24 04:21:35;;;;;;;14.63;7.95;;;11.10;99.90;;;;;;5044008;28;20395;-41
2023/05/24 04:24:03;;;;;;;16.10;7.90;;;11.10;99.90;;;;;;5032853;28;20520;-40
2023/05/24 04:26:32;;;;;;;17.67;8.57;;;11.10;99.90;;;;;;5018992;28;20061;-39
2023/05/24 04:29:00;;;;;;;16.33;7.78;;;11.00;99.90;;;;;;5015053;28;20030;-39
2023/05/24 04:31:29;;;;;;;15.52;7.90;;;11.00;99.90;;;;;;5022519;28;20045;-41
2023/05/24 04:33:58;;;;;;;17.13;7.97;;;11.10;99.90;;;;;;5022663;28;20545;-43
2023/05/24 04:36:25;;;;;;;17.25;7.47;;;11.10;99.90;;;;;;5036707;28;20522;-44
2023/05/24 04:38:55;;;;;;;14.27;7.75;;;11.10;99.90;;;;;;5013548;28;20041;-41
2023/05/24 04:41:23;;;;;;;20.63;8.07;;;11.30;99.90;;;;;;5038372;28;20434;-45
2023/05/24 04:43:50;;;;;;;13.45;8.18;;;11.40;99.90;;;;;;5036535;28;20423;-43
2023/05/24 04:46:17;;;;;;;13.30;7.72;;;11.40;99.90;;;;;;5038145;28;20044;-46
2023/05/24 04:48:45;;;;;;;14.23;7.20;;;11.40;99.90;;;;;;5048503;28;20053;-45
2023/05/24 04:51:12;;;;;;;14.00;7.30;;;11.40;99.90;;;;;;5049760;28;20049;-45
2023/05/24 04:53:40;;;;;;;13.82;7.90;;;11.60;99.90;;;;;;5054205;28;20037;-44
2023/05/24 04:56:07;;;;;;;11.85;7.43;;;11.70;99.90;;;;;;5040511;28;20349;-41
2023/05/24 04:58:34;;;;;;;17.33;8.15;;;11.70;99.90;;;;;;5027491;28;20041;-45
2023/05/24 05:01:05;;;;;;;16.08;7.78;;;11.60;99.90;;;;;;5028676;28;20140;-43
2023/05/24 05:03:32;;;;;;;14.88;6.85;;;11.70;99.90;;;;;;5031889;28;20050;-43
2023/05/24 05:06:00;;;;;;;15.73;8.48;;;11.70;99.90;;;;;;5032242;28;20049;-44
2023/05/24 05:08:27;;;;;;;14.65;7.25;;;11.70;99.90;;;;;;5021415;28;20101;-45
2023/05/24 05:10:55;;;;;;;15.02;7.35;;;11.60;99.90;;;;;;5037354;28;20041;-44
2023/05/24 05:13:22;;;;;;;15.40;7.28;;;11.60;99.90;;;;;;5031230;28;20044;-43
2023/05/24 05:15:50;;;;;;;17.73;7.68;;;11.60;99.90;;;;;;5025911;28;20050;-44
2023/05/24 05:18:18;;;;;;;12.88;7.32;;;11.70;99.90;;;;;;5026884;28;20526;-43
2023/05/24 05:20:45;;;;;;;14.07;6.93;;;11.70;99.90;;;;;;5028334;28;20041;-43
2023/05/24 05:23:13;;;;;;;12.02;6.97;;;11.80;99.90;;;;;;5028115;28;20136;-44
2023/05/24 05:25:40;;;;;;;13.73;6.40;;;11.90;99.90;;;;;;5033471;28;20056;-41
2023/05/24 05:28:07;;;;;;;14.45;7.70;;;12.00;99.90;;;;;;5033279;28;20375;-40
2023/05/24 05:30:35;;;;;;;11.38;6.47;;;12.00;99.90;;;;;;5033548;28;20053;-44
2023/05/24 05:33:04;;;;;;;13.98;6.15;;;12.00;99.90;;;;;;5033356;28;20117;-42
2023/05/24 05:35:32;;;;;;;15.25;6.68;;;11.90;99.90;;;;;;5026295;28;20053;-42
2023/05/24 05:37:59;;;;;;;16.65;7.32;;;11.90;99.90;;;;;;5033112;28;20455;-45
2023/05/24 05:40:27;;;;;;;16.00;7.00;;;12.00;99.90;;;;;;5025618;28;20045;-41
2023/05/24 05:42:54;;;;;;;11.48;7.03;;;12.00;99.90;;;;;;5024177;28;20151;-42
2023/05/24 05:45:21;;;;;;;13.90;6.85;;;12.10;99.90;;;;;;5026092;28;20073;-42
2023/05/24 05:47:50;;;;;;;19.70;7.90;;;12.10;99.90;;;;;;5032314;28;20049;-43
2023/05/24 05:50:17;;;;;;;16.17;7.97;;;12.10;99.90;;;;;;5029555;28;20522;-43
2023/05/24 05:52:44;;;;;;;12.15;6.78;;;12.10;99.90;;;;;;5033420;28;20457;-43
2023/05/24 05:55:12;;;;;;;15.88;6.70;;;12.10;99.90;;;;;;5032765;28;20518;-43
2023/05/24 05:57:40;;;;;;;14.75;6.60;;;12.00;99.90;;;;;;5031836;28;20071;-43
2023/05/24 06:00:07;;;;;;;15.25;6.10;;;12.00;99.90;;;;;;5028946;28;20069;-42
2023/05/24 06:02:38;;;;;;;16.45;6.28;;;12.00;99.90;;;;;;5022348;28;20494;-42
2023/05/24 06:05:05;;;;;;;14.63;6.50;;;11.90;99.90;;;;;;5033187;28;20053;-43
2023/05/24 06:07:34;;;;;;;14.75;6.13;;;12.00;99.90;;;;;;5031043;28;20033;-43
2023/05/24 06:10:02;;;;;;;17.85;6.25;;;12.10;99.90;;;;;;5030601;28;20049;-43
2023/05/24 06:12:29;;;;;;;15.57;5.75;;;12.10;99.90;;;;;;5029044;28;20440;-42
2023/05/24 06:14:58;;;;;;;14.77;6.60;;;12.10;99.90;;;;;;5033268;28;20514;-42
2023/05/24 06:17:26;;;;;;;12.20;5.78;;;12.00;99.90;;;;;;5031000;28;20100;-42
2023/05/24 06:19:54;;;;;;;10.25;5.68;;;12.10;99.90;;;;;;5033114;28;20413;-44
2023/05/24 06:22:22;;;;;;;14.52;6.45;;;12.00;99.90;;;;;;5038645;28;20042;-43
2023/05/24 06:24:49;;;;;;;17.23;6.95;;;12.10;99.90;;;;;;5031593;28;20186;-43
2023/05/24 06:27:16;;;;;;;15.77;7.18;;;12.10;99.90;;;;;;5036964;28;20445;-43
2023/05/24 06:29:44;;;;;;;12.57;6.53;;;12.20;99.90;;;;;;5034132;28;20037;-43
2023/05/24 06:32:11;;;;;;;17.70;7.72;;;12.30;99.90;;;;;;5040379;28;20049;-43
2023/05/24 06:34:38;;;;;;;16.05;8.02;;;12.40;99.90;;;;;;5039855;28;20049;-43
2023/05/24 06:37:09;;;;;;;20.77;6.47;;;12.70;99.90;;;;;;5032161;28;20042;-42
2023/05/24 06:39:36;;;;;;;17.50;6.78;;;12.60;99.90;;;;;;5038793;28;20191;-42
2023/05/24 06:42:04;;;;;;;15.63;6.07;;;12.60;99.90;;;;;;5040438;28;20037;-42
2023/05/24 06:44:35;;;;;;;17.77;6.53;;;12.70;99.90;;;;;;5024697;28;20033;-45
2023/05/24 06:47:04;;;;;;;13.95;6.43;;;12.80;99.90;;;;;;5031456;28;20052;-46
2023/05/24 06:49:32;;;;;;;14.32;6.38;;;12.90;99.90;;;;;;5042756;28;20489;-41
2023/05/24 06:51:59;;;;;;;15.98;6.65;;;12.90;99.90;;;;;;5038131;28;20049;-43
2023/05/24 06:54:27;;;;;;;11.13;6.53;;;13.00;99.90;;;;;;5028890;28;20104;-42
2023/05/24 06:56:54;;;;;;;13.88;6.13;;;12.90;99.90;;;;;;5039741;28;20044;-45
2023/05/24 06:59:22;;;;;;;18.23;10.05;;;13.00;99.90;;;;;;5040803;28;20063;-43
2023/05/24 07:01:52;;;;;;;10.20;6.07;;;13.00;99.90;;;;;;5040391;28;20237;-45
2023/05/24 07:04:20;;;;;;;12.20;5.78;;;13.00;99.90;;;;;;5042074;28;20045;-42
2023/05/24 07:06:47;;;;;;;11.40;5.63;;;13.20;99.90;;;;;;5037940;28;20136;-43
2023/05/24 07:09:14;;;;;;;16.33;7.00;;;13.40;99.90;;;;;;5030536;28;20050;-43
2023/05/24 07:11:42;;;;;;;15.27;6.57;;;13.50;99.90;;;;;;5030507;28;20067;-42
2023/05/24 07:14:09;;;;;;;17.40;5.47;;;13.60;99.90;;;;;;5040917;28;20048;-41
2023/05/24 07:16:36;;;;;;;15.75;6.53;;;13.80;99.90;;;;;;5050311;28;20053;-43
2023/05/24 07:19:04;;;;;;;15.38;6.85;;;13.80;99.90;;;;;;5051400;28;20137;-41
2023/05/24 07:21:31;;;;;;;14.70;6.22;;;13.90;99.90;;;;;;5037842;28;20057;-44
2023/05/24 07:23:58;;;;;;;10.88;5.82;;;14.00;99.90;;;;;;5038596;28;20037;-45
2023/05/24 07:26:26;;;;;;;10.48;6.05;;;13.90;99.90;;;;;;5041183;28;20041;-46
2023/05/24 07:28:53;;;;;;;13.07;5.82;;;14.20;99.90;;;;;;5041918;28;20041;-41
2023/05/24 07:31:21;;;;;;;11.75;6.13;;;14.40;99.90;;;;;;5038566;28;20049;-43
2023/05/24 07:33:48;;;;;;;12.00;6.00;;;14.40;99.90;;;;;;5044969;28;20409;-42
2023/05/24 07:36:16;;;;;;;14.73;6.55;;;14.40;99.90;;;;;;5046237;28;20178;-42
2023/05/24 07:38:43;;;;;;;15.88;6.78;;;14.30;99.90;;;;;;5054290;28;20046;-44
2023/05/24 07:41:13;;;;;;;13.00;7.10;;;14.40;99.90;;;;;;5043891;28;20132;-42
2023/05/24 07:43:40;;;;;;;21.25;7.05;;;14.30;99.90;;;;;;5034475;28;20084;-44
2023/05/24 07:46:09;;;;;;;14.23;6.22;;;14.40;99.90;;;;;;5036553;28;20045;-44
2023/05/24 07:48:36;;;;;;;13.27;6.35;;;14.30;99.90;;;;;;5034870;28;20045;-44
2023/05/24 07:51:03;;;;;;;12.27;5.90;;;14.20;99.90;;;;;;5045539;28;20064;-45
2023/05/24 07:53:32;;;;;;;9.25;5.68;;;13.70;99.90;;;;;;5042547;28;20077;-45
2023/05/24 07:56:00;;;;;;;14.68;6.55;;;13.90;99.90;;;;;;5046309;28;20042;-44
2023/05/24 07:58:28;;;;;;;13.63;6.57;;;13.70;99.90;;;;;;5042643;28;20102;-40
2023/05/24 08:00:55;;;;;;;15.85;5.68;;;13.40;99.90;;;;;;5049079;28;20076;-41
2023/05/24 08:03:24;;;;;;;11.60;6.30;;;13.60;99.90;;;;;;5035758;28;20045;-42
2023/05/24 08:05:52;;;;;;;19.73;7.03;;;13.70;99.90;;;;;;5045697;28;20051;-40
2023/05/24 08:08:19;;;;;;;9.93;6.13;;;13.70;99.90;;;;;;5045137;28;20058;-42
2023/05/24 08:10:46;;;;;;;14.40;6.95;;;13.60;99.90;;;;;;5054542;28;20125;-38
2023/05/24 08:13:14;;;;;;;12.55;7.03;;;13.60;99.90;;;;;;5057333;28;20087;-40
2023/05/24 08:15:41;;;;;;;12.10;6.05;;;13.20;99.90;;;;;;5057276;28;20045;-42
2023/05/24 08:18:09;;;;;;;12.18;6.28;;;13.40;99.90;;;;;;5058413;28;20044;-38
2023/05/24 08:20:37;;;;;;;18.08;7.25;;;13.30;99.90;;;;;;5043121;28;20051;-40
2023/05/24 08:23:05;;;;;;;14.38;6.40;;;13.20;99.90;;;;;;5035463;28;20048;-41
2023/05/24 08:25:32;;;;;;;12.85;6.55;;;13.20;99.90;;;;;;5052420;28;20041;-41
2023/05/24 08:27:59;;;;;;;14.98;7.07;;;13.40;99.90;;;;;;5053644;28;20033;-44
2023/05/24 08:30:27;;;;;;;12.05;6.53;;;13.40;99.90;;;;;;5038332;28;20069;-41
2023/05/24 08:32:56;;;;;;;12.73;6.45;;;13.30;99.90;;;;;;5036543;28;20037;-41
2023/05/24 08:35:28;;;;;;;12.48;7.03;;;13.20;99.90;;;;;;5055294;28;20451;-40
2023/05/24 08:37:55;;;;;;;13.93;7.18;;;13.40;99.90;;;;;;5064866;28;20040;-42
2023/05/24 08:40:23;;;;;;;13.75;6.80;;;13.70;99.90;;;;;;5055126;28;20048;-41
2023/05/24 08:42:51;;;;;;;12.77;6.93;;;13.80;99.90;;;;;;5051383;28;20060;-41
2023/05/24 08:45:21;;;;;;;14.25;6.70;;;14.00;99.90;;;;;;5053282;28;20091;-41
2023/05/24 08:47:50;;;;;;;13.20;6.43;;;13.90;99.90;;;;;;5050201;28;20041;-42
2023/05/24 08:50:19;;;;;;;15.48;7.03;;;13.80;99.90;;;;;;5041913;28;20049;-41
2023/05/24 08:52:47;;;;;;;13.40;6.88;;;13.40;99.90;;;;;;5047517;28;20120;-41
2023/05/24 08:55:16;;;;;;;15.98;7.47;;;13.40;99.90;;;;;;5049335;28;20049;-41
2023/05/24 08:57:44;;;;;;;16.80;6.88;;;13.30;99.90;;;;;;5047493;28;20127;-43
2023/05/24 09:00:12;;;;;;;11.38;6.03;;;13.40;99.90;;;;;;5058788;28;20048;-41
2023/05/24 09:02:42;;;;;;;16.55;6.93;;;13.50;99.90;;;;;;5050338;28;20045;-42
2023/05/24 09:05:11;;;;;;;18.75;8.18;;;13.50;99.90;;;;;;5055906;28;20367;-40
2023/05/24 09:07:39;;;;;;;12.80;6.70;;;13.60;99.90;;;;;;5044939;28;20430;-40
2023/05/24 09:10:08;;;;;;;12.75;6.78;;;13.70;99.90;;;;;;5033104;28;20410;-42
2023/05/24 09:12:37;;;;;;;13.80;6.20;;;13.70;99.90;;;;;;5043799;28;20520;-40
2023/05/24 09:15:07;;;;;;;10.68;6.72;;;13.60;99.90;;;;;;5054419;28;20032;-40
2023/05/24 09:17:35;;;;;;;13.35;6.68;;;13.60;99.90;;;;;;5043345;28;20086;-39
2023/05/24 09:20:09;;;;;;;15.85;7.20;;;13.50;99.90;;;;;;5043798;28;20045;-41
2023/05/24 09:22:41;;;;;;;12.80;6.55;;;13.60;99.90;;;;;;5034923;28;20084;-41
2023/05/24 09:25:11;;;;;;;16.70;7.45;;;13.70;99.90;;;;;;5033326;28;20128;-39
2023/05/24 09:27:39;;;;;;;13.15;7.47;;;13.60;99.90;;;;;;5047304;28;20033;-44
2023/05/24 09:30:11;;;;;;;16.23;6.55;;;13.50;99.90;;;;;;5048616;28;20060;-43
2023/05/24 09:32:42;;;;;;;15.75;6.72;;;13.70;99.90;;;;;;5038803;28;20047;-41
2023/05/24 09:35:10;;;;;;;;;;;13.40;99.90;;;;;;5060968;28;20057;-44
2023/05/24 09:37:39;;;;;;;14.23;6.55;;;13.30;99.90;;;;;;5068492;28;19924;-45
2023/05/24 09:40:17;;;;;;;9.82;6.78;;;13.50;99.90;;;;;;5052853;28;20064;-41
2023/05/24 09:42:45;;;;;;;15.40;6.75;;;13.60;99.90;;;;;;5033073;28;20056;-40
2023/05/24 09:45:13;;;;;;;12.88;6.78;;;13.60;99.90;;;;;;5056599;28;20227;-40
2023/05/24 09:47:43;;;;;;;13.65;6.75;;;13.70;99.90;;;;;;5047444;28;20029;-41
2023/05/24 09:50:18;;;;;;;12.82;7.15;;;14.00;99.90;;;;;;5045151;28;20604;-41
2023/05/24 09:52:46;;;;;;;16.48;7.80;;;14.20;99.90;;;;;;5039103;28;20387;-41
2023/05/24 09:55:16;;;;;;;15.23;7.25;;;14.30;99.90;;;;;;5037087;28;20107;-41
2023/05/24 09:57:44;;;;;;;13.90;6.95;;;14.60;99.90;;;;;;5045055;28;20079;-41
2023/05/24 10:00:15;;;;;;;16.70;7.57;;;14.70;99.90;;;;;;5043447;28;20460;-39
2023/05/24 10:02:45;;;;;;;14.00;6.97;;;14.80;99.90;;;;;;5056611;28;20482;-39
2023/05/24 10:05:20;;;;;;;20.08;7.55;;;15.00;99.90;;;;;;5047821;28;20061;-41
2023/05/24 10:07:47;;;;;;;16.33;6.90;;;15.10;99.90;;;;;;5055961;28;20045;-40
2023/05/24 10:10:15;;;;;;;13.77;7.15;;;15.40;99.90;;;;;;5047454;28;20111;-40
2023/05/24 10:12:45;;;;;;;11.50;6.78;;;15.50;99.90;;;;;;5054866;28;20054;-41
2023/05/24 10:15:13;;;;;;;17.52;6.82;;;15.60;99.90;;;;;;5045811;28;20099;-45
2023/05/24 10:17:40;;;;;;;19.95;7.05;;;15.90;99.90;;;;;;5048652;28;20128;-45
2023/05/24 10:20:11;;;;;;;16.30;7.35;;;15.90;99.90;;;;;;5051515;28;20040;-42
2023/05/24 10:22:49;;;;;;;14.27;7.15;;;16.20;99.90;;;;;;5054167;28;20398;-45
2023/05/24 10:25:21;;;;;;;18.67;9.63;;;16.20;99.90;;;;;;5055393;28;20056;-43
2023/05/24 10:27:53;;;;;;;12.07;7.05;;;16.30;99.90;;;;;;5055686;28;20064;-45
2023/05/24 10:30:39;;;;;;;;;;;16.70;99.90;;;;;;5050112;28;20041;-45
2023/05/24 10:33:11;;;;;;;14.55;7.05;;;17.00;99.90;;;;;;5051468;28;20012;-45
2023/05/24 10:35:40;;;;;;;13.80;6.47;;;17.30;99.90;;;;;;5028778;28;20101;-45
2023/05/24 10:38:07;;;;;;;17.77;7.15;;;17.20;99.90;;;;;;5049402;28;20080;-44
2023/05/24 10:40:43;;;;;;;14.02;6.82;;;17.30;99.90;;;;;;5054840;28;20041;-44
2023/05/24 10:43:10;;;;;;;14.73;6.88;;;17.40;99.90;;;;;;5048045;28;20041;-41
2023/05/24 10:45:40;;;;;;;9.32;6.20;;;17.50;99.90;;;;;;5051513;28;20064;-47
2023/05/24 10:48:14;;;;;;;12.82;6.40;;;17.80;99.90;;;;;;5037408;28;20048;-43
2023/05/24 10:50:42;;;;;;;12.70;6.93;;;17.40;99.90;;;;;;5043600;28;20037;-45
2023/05/24 10:53:14;;;;;;;15.23;7.00;;;17.10;99.90;;;;;;5050302;28;20517;-42
2023/05/24 10:56:02;;;;;;;;;;;17.30;99.90;;;;;;5035593;28;20053;-44
2023/05/24 10:58:32;;;;;;;13.30;6.57;;;17.40;99.90;;;;;;5044985;28;19921;-43
2023/05/24 11:01:00;;;;;;;12.00;6.22;;;17.30;99.90;;;;;;5053717;28;20087;-43
2023/05/24 11:03:34;;;;;;;13.45;7.30;;;17.20;99.90;;;;;;5047528;28;20041;-44
2023/05/24 11:06:01;;;;;;;18.20;7.43;;;17.20;99.90;;;;;;5054502;28;20057;-43
2023/05/24 11:08:34;;;;;;;16.13;7.13;;;17.60;99.90;;;;;;5039149;28;20040;-44
2023/05/24 11:11:10;;;;;;;10.77;6.75;;;17.70;99.90;;;;;;5053630;28;20537;-44
2023/05/24 11:13:55;;;;;;;13.80;7.03;;;17.80;99.90;;;;;;5037578;28;20080;-45
2023/05/24 11:16:36;;;;;;;11.45;6.57;;;17.80;99.90;;;;;;5053503;28;20381;-44
2023/05/24 11:19:20;;;;;;;12.65;7.05;;;17.80;99.90;;;;;;5042102;28;20156;-43
2023/05/24 11:21:49;;;;;;;10.27;6.85;;;17.60;99.90;;;;;;5034198;28;20051;-44
2023/05/24 11:24:18;;;;;;;12.38;7.05;;;17.90;99.90;;;;;;5035405;28;20038;-43
2023/05/24 11:26:46;;;;;;;13.50;6.85;;;18.10;99.90;;;;;;5029606;28;20049;-44
2023/05/24 11:29:19;;;;;;;14.63;6.68;;;18.50;99.90;;;;;;5034342;28;20049;-45
2023/05/24 11:31:56;;;;;;;10.45;6.47;;;18.80;99.90;;;;;;5036421;28;20390;-47
2023/05/24 11:34:25;;;;;;;13.93;7.07;;;18.40;99.90;;;;;;5039891;28;20103;-45
2023/05/24 11:36:54;;;;;;;12.13;6.45;;;18.20;99.90;;;;;;5037932;28;20048;-43
2023/05/24 11:39:22;;;;;;;16.42;7.30;;;18.10;99.90;;;;;;5053505;28;20048;-45
2023/05/24 11:41:52;;;;;;;11.05;6.80;;;18.00;99.90;;;;;;5040071;28;20504;-41
2023/05/24 11:44:20;;;;;;;10.10;6.25;;;18.20;99.90;;;;;;5043231;28;20190;-44
2023/05/24 11:46:47;;;;;;;12.40;7.93;;;18.30;99.90;;;;;;5047602;28;20053;-43
2023/05/24 11:49:16;;;;;;;13.10;6.50;;;18.60;99.90;;;;;;5055000;28;20047;-43
2023/05/24 11:51:43;;;;;;;13.43;7.63;;;18.60;99.90;;;;;;5059106;28;20052;-43
2023/05/24 11:54:10;;;;;;;14.25;7.65;;;18.60;99.90;;;;;;5055909;28;20105;-42
2023/05/24 11:56:38;;;;;;;14.02;6.85;;;18.50;99.90;;;;;;5053157;28;20345;-45
2023/05/24 11:59:16;;;;;;;12.40;7.10;;;18.40;99.90;;;;;;5052703;28;20312;-43
2023/05/24 12:01:44;;;;;;;16.95;6.78;;;18.40;99.90;;;;;;5038850;28;20241;-43
2023/05/24 12:04:11;;;;;;;10.35;6.60;;;18.50;99.90;;;;;;5054274;28;20571;-46
2023/05/24 12:06:43;;;;;;;16.25;7.05;;;18.90;99.90;;;;;;5055651;28;20409;-43
2023/05/24 12:09:14;;;;;;;9.70;6.68;;;19.00;99.90;;;;;;5055533;28;20061;-44
2023/05/24 12:11:46;;;;;;;11.77;6.60;;;19.40;99.90;;;;;;5045053;28;20521;-43
2023/05/24 12:14:19;;;;;;;9.25;6.80;;;19.50;99.90;;;;;;5048615;28;20412;-44
2023/05/24 12:16:48;;;;;;;8.65;5.95;;;19.10;99.90;;;;;;5029161;28;20069;-40
2023/05/24 12:19:19;;;;;;;10.18;6.60;;;19.30;99.90;;;;;;5015900;28;20505;-42
2023/05/24 12:22:05;;;;;;;11.35;7.25;;;19.40;99.90;;;;;;5047625;28;20049;-41
2023/05/24 12:24:34;;;;;;;11.52;6.68;;;19.50;99.90;;;;;;5033730;28;20037;-43
2023/05/24 12:27:06;;;;;;;11.40;6.75;;;19.40;99.90;;;;;;5033762;28;20056;-43
2023/05/24 12:29:39;;;;;;;12.43;6.35;;;19.70;99.90;;;;;;5040351;28;20132;-43
2023/05/24 12:32:12;;;;;;;14.35;6.80;;;19.90;99.90;;;;;;5029848;28;20037;-44
2023/05/24 12:34:44;;;;;;;10.70;6.70;;;19.80;99.90;;;;;;5023277;28;20353;-42
2023/05/24 12:37:13;;;;;;;10.43;6.50;;;20.00;99.90;;;;;;5037422;28;20133;-43
2023/05/24 12:39:41;;;;;;;13.63;7.00;;;20.20;99.90;;;;;;5038983;28;20049;-43
2023/05/24 12:42:12;;;;;;;10.32;6.50;;;20.30;99.90;;;;;;5037269;28;20049;-40
2023/05/24 12:44:40;;;;;;;10.18;6.65;;;20.50;99.90;;;;;;5039060;28;20047;-43
2023/05/24 12:47:09;;;;;;;11.20;6.30;;;20.70;99.70;;;;;;5048570;28;20052;-45
2023/05/24 12:49:36;;;;;;;11.90;6.65;;;21.30;98.10;;;;;;5041829;28;20045;-44